createdAt,value
2018-07-16T04:14:07.262Z,11.10
2018-07-16T04:16:36.280Z,11.20
2018-07-16T04:19:05.333Z,11.20
2018-07-16T04:21:34.419Z,11.20
2018-07-16T04:24:03.437Z,11.20
2018-07-16T04:26:32.500Z,11.30
2018-07-16T04:31:30.244Z,11.30
2018-07-16T04:33:59.259Z,11.40
2018-07-16T04:36:28.315Z,11.40
2018-07-16T04:38:57.360Z,11.50
2018-07-16T04:41:26.412Z,11.50
2018-07-16T04:43:55.438Z,11.60
2018-07-16T04:46:24.504Z,11.70
2018-07-16T04:48:53.559Z,11.80
2018-07-16T04:51:22.612Z,11.90
2018-07-16T04:53:51.673Z,12.00
2018-07-16T04:56:20.830Z,12.10
2018-07-16T04:58:49.839Z,12.20
2018-07-16T05:01:18.944Z,12.30
2018-07-16T05:03:47.986Z,12.40
2018-07-16T05:06:17.115Z,12.50
2018-07-16T05:08:46.162Z,12.60
2018-07-16T05:11:15.184Z,12.70
2018-07-16T05:13:44.256Z,12.90
2018-07-16T05:16:13.285Z,13.00
2018-07-16T05:21:10.982Z,13.30
2018-07-16T05:23:40.036Z,13.40
2018-07-16T05:26:09.095Z,13.60
2018-07-16T05:28:38.171Z,13.80
2018-07-16T05:31:07.228Z,14.00
2018-07-16T05:33:36.253Z,14.10
2018-07-16T05:36:05.372Z,14.20
2018-07-16T05:38:34.438Z,14.40
2018-07-16T05:41:03.576Z,14.50
2018-07-16T05:43:32.669Z,14.70
2018-07-16T05:46:01.804Z,14.80
2018-07-16T05:48:31.074Z,14.90
2018-07-16T05:51:00.126Z,15.10
2018-07-16T05:53:29.149Z,15.20
2018-07-16T05:55:58.257Z,15.40
2018-07-16T05:58:27.440Z,15.60
2018-07-16T06:00:56.484Z,15.70
2018-07-16T06:03:26.266Z,15.90
2018-07-16T06:05:55.316Z,16.00
2018-07-16T06:08:24.398Z,16.10
2018-07-16T06:10:53.513Z,16.30
2018-07-16T06:13:22.600Z,16.50
2018-07-16T06:15:51.729Z,16.60
2018-07-16T06:18:20.752Z,16.80
2018-07-16T06:20:49.789Z,17.00
2018-07-16T06:23:18.973Z,17.20
2018-07-16T06:25:48.388Z,17.40
2018-07-16T06:28:17.475Z,17.60
2018-07-16T06:30:46.542Z,17.70
2018-07-16T06:33:15.651Z,17.80
2018-07-16T06:35:44.757Z,17.90
2018-07-16T06:43:11.254Z,18.30
2018-07-16T06:45:40.351Z,18.40
2018-07-16T06:48:09.466Z,18.50
2018-07-16T06:50:38.837Z,18.60
2018-07-16T06:53:08.114Z,18.80
2018-07-16T06:55:37.165Z,18.90
2018-07-16T06:58:06.628Z,19.00
2018-07-16T07:00:35.773Z,19.10
2018-07-16T07:03:04.959Z,19.20
2018-07-16T07:05:34.168Z,19.40
2018-07-16T07:08:03.536Z,19.40
2018-07-16T07:10:32.789Z,19.60
2018-07-16T07:13:02.010Z,19.60
2018-07-16T07:15:31.092Z,19.70
2018-07-16T07:18:00.421Z,19.80
2018-07-16T07:20:29.651Z,20.00
2018-07-16T07:22:58.863Z,20.20
2018-07-16T07:25:28.274Z,20.30
2018-07-16T07:27:57.324Z,20.50
2018-07-16T07:30:26.403Z,20.70
2018-07-16T07:32:55.880Z,20.80
2018-07-16T07:35:25.131Z,20.80
2018-07-16T07:37:54.299Z,20.90
2018-07-16T07:40:23.706Z,21.00
2018-07-16T07:42:53.048Z,21.20
2018-07-16T07:45:22.091Z,21.30
2018-07-16T07:50:20.006Z,21.40
2018-07-16T07:52:50.090Z,21.50
2018-07-16T07:55:19.607Z,21.60
2018-07-16T07:57:48.340Z,21.70
2018-07-16T08:00:17.356Z,21.80
2018-07-16T08:02:47.478Z,21.90
2018-07-16T08:05:16.870Z,22.10
2018-07-16T08:07:45.980Z,22.20
2018-07-16T08:10:15.039Z,22.30
2018-07-16T08:12:44.087Z,22.40
2018-07-16T08:15:13.213Z,22.40
2018-07-16T08:17:42.353Z,22.50
2018-07-16T08:20:11.537Z,22.60
2018-07-16T08:22:40.603Z,22.70
2018-07-16T08:25:09.697Z,22.70
2018-07-16T08:27:38.891Z,22.70
2018-07-16T08:30:08.034Z,22.80
2018-07-16T08:32:37.142Z,22.70
2018-07-16T08:35:06.308Z,22.80
2018-07-16T08:37:35.367Z,22.80
2018-07-16T08:40:04.852Z,23.00
2018-07-16T08:45:02.627Z,23.10
2018-07-16T08:47:31.666Z,23.10
2018-07-16T08:50:00.740Z,23.20
2018-07-16T08:52:29.763Z,23.10
2018-07-16T08:54:58.789Z,23.10
2018-07-16T08:57:27.825Z,23.30
2018-07-16T08:59:56.876Z,23.40
2018-07-16T09:02:25.895Z,23.50
2018-07-16T09:04:54.917Z,23.60
2018-07-16T09:07:23.972Z,23.70
2018-07-16T09:09:53.040Z,23.90
2018-07-16T09:12:22.165Z,23.90
2018-07-16T09:14:51.208Z,23.80
2018-07-16T09:17:20.300Z,23.90
2018-07-16T09:19:49.372Z,23.90
2018-07-16T09:27:15.716Z,24.20
2018-07-16T09:29:44.809Z,24.10
2018-07-16T09:32:13.863Z,24.20
2018-07-16T09:34:42.971Z,24.20
2018-07-16T09:37:12.317Z,24.20
2018-07-16T09:39:41.354Z,24.30
2018-07-16T09:42:10.452Z,24.30
2018-07-16T09:44:39.867Z,24.30
2018-07-16T09:47:08.948Z,24.40
2018-07-16T09:49:38.964Z,24.40
2018-07-16T09:52:08.168Z,24.40
2018-07-16T09:54:37.729Z,24.40
2018-07-16T09:59:35.500Z,24.40
2018-07-16T10:02:09.958Z,24.40
2018-07-16T10:04:39.021Z,24.40
2018-07-16T10:07:08.067Z,24.40
2018-07-16T10:09:37.120Z,24.40
2018-07-16T10:12:06.219Z,24.50
2018-07-16T10:17:04.112Z,24.50
2018-07-16T10:19:33.284Z,24.60
2018-07-16T10:22:02.296Z,24.70
2018-07-16T10:24:31.350Z,24.60
2018-07-16T10:27:00.435Z,24.60
2018-07-16T10:29:29.485Z,24.70
2018-07-16T10:31:58.669Z,24.80
2018-07-16T10:34:27.733Z,24.80
2018-07-16T10:36:56.790Z,24.90
2018-07-16T10:39:25.902Z,25.00
2018-07-16T10:41:54.970Z,25.00
2018-07-16T10:44:24.057Z,24.90
2018-07-16T10:49:21.976Z,24.80
2018-07-16T10:51:51.120Z,24.90
2018-07-16T10:54:20.168Z,25.00
2018-07-16T10:56:49.296Z,25.00
2018-07-16T10:59:18.472Z,25.00
2018-07-16T11:01:47.572Z,25.00
2018-07-16T11:04:16.614Z,25.00
2018-07-16T11:06:45.678Z,25.00
2018-07-16T11:09:14.705Z,25.00
2018-07-16T11:11:43.852Z,25.00
2018-07-16T11:14:12.876Z,25.00
2018-07-16T11:19:10.576Z,25.10
2018-07-16T11:21:39.586Z,25.10
2018-07-16T11:24:08.813Z,25.20
2018-07-16T11:26:37.872Z,25.10
2018-07-16T11:29:06.952Z,25.20
2018-07-16T11:31:36.016Z,25.20
2018-07-16T11:34:05.186Z,25.30
2018-07-16T11:36:34.238Z,25.30
2018-07-16T11:39:03.485Z,25.20
2018-07-16T11:41:32.511Z,25.20
2018-07-16T11:44:01.576Z,25.20
2018-07-16T11:46:30.636Z,25.30
2018-07-16T11:48:59.732Z,25.40
2018-07-16T11:51:28.780Z,25.50
2018-07-16T11:53:57.852Z,25.60
2018-07-16T11:56:26.955Z,25.60
2018-07-16T11:58:56.037Z,25.70
2018-07-16T12:01:25.079Z,25.80
2018-07-16T12:03:54.097Z,25.90
2018-07-16T12:06:23.170Z,25.90
2018-07-16T12:08:53.832Z,25.90
2018-07-16T12:11:23.145Z,26.00
2018-07-16T12:13:52.554Z,26.00
2018-07-16T12:16:21.613Z,26.00
2018-07-16T12:18:50.633Z,26.00
2018-07-16T12:21:19.706Z,26.00
2018-07-16T12:26:17.356Z,26.00
2018-07-16T12:28:46.360Z,26.00
2018-07-16T12:31:15.405Z,26.00
2018-07-16T12:33:44.423Z,26.00
2018-07-16T12:36:13.564Z,26.10
2018-07-16T12:38:42.592Z,26.10
2018-07-16T12:41:11.645Z,26.20
2018-07-16T12:43:40.736Z,26.10
2018-07-16T12:46:09.975Z,26.10
2018-07-16T12:48:38.992Z,26.20
2018-07-16T12:51:08.023Z,26.20
2018-07-16T12:53:37.067Z,26.10
2018-07-16T12:56:06.200Z,26.10
2018-07-16T12:58:35.236Z,26.10
2018-07-16T13:01:04.338Z,26.10
2018-07-16T13:03:33.376Z,26.00
2018-07-16T13:06:02.522Z,26.00
2018-07-16T13:08:31.576Z,26.00
2018-07-16T13:11:00.636Z,26.10
2018-07-16T13:13:29.726Z,26.20
2018-07-16T13:15:58.807Z,26.30
2018-07-16T13:18:27.832Z,26.40
2018-07-16T13:20:56.900Z,26.40
2018-07-16T13:23:25.976Z,26.50
2018-07-16T13:25:54.988Z,26.40
2018-07-16T13:28:24.032Z,26.50
2018-07-16T13:30:53.040Z,26.50
2018-07-16T13:33:22.143Z,26.50
2018-07-16T13:35:51.184Z,26.70
2018-07-16T13:38:20.420Z,26.70
2018-07-16T13:40:49.758Z,26.70
2018-07-16T13:43:18.970Z,26.90
2018-07-16T13:45:48.059Z,26.90
2018-07-16T13:48:17.486Z,27.00
2018-07-16T13:50:46.744Z,27.10
2018-07-16T13:53:16.007Z,27.10
2018-07-16T13:55:45.517Z,27.00
2018-07-16T13:58:14.830Z,26.90
2018-07-16T14:00:43.967Z,26.70
2018-07-16T14:03:13.278Z,26.60
2018-07-16T14:05:42.641Z,26.50
2018-07-16T14:08:11.815Z,26.30
2018-07-16T14:10:41.037Z,26.20
2018-07-16T14:13:10.289Z,26.20
2018-07-16T14:15:39.356Z,26.20
2018-07-16T14:18:08.492Z,26.30
2018-07-16T14:20:37.527Z,26.40
2018-07-16T14:23:06.593Z,26.50
2018-07-16T14:25:36.232Z,26.60
2018-07-16T14:28:05.393Z,26.80
2018-07-16T14:30:34.413Z,26.90
2018-07-16T14:35:33.159Z,27.20
2018-07-16T14:38:02.629Z,27.30
2018-07-16T14:40:31.755Z,27.30
2018-07-16T14:43:00.889Z,27.40
2018-07-16T14:45:29.973Z,27.50
2018-07-16T14:47:59.129Z,27.50
2018-07-16T14:50:28.240Z,27.60
2018-07-16T14:52:57.324Z,27.50
2018-07-16T14:55:26.357Z,27.30
2018-07-16T14:57:55.484Z,27.30
2018-07-16T15:00:24.509Z,27.30
2018-07-16T15:02:53.604Z,27.20
2018-07-16T15:05:22.982Z,27.40
2018-07-16T15:07:52.057Z,27.50
2018-07-16T15:10:21.104Z,27.80
2018-07-16T15:12:50.180Z,27.90
2018-07-16T15:15:19.207Z,27.90
2018-07-16T15:17:48.250Z,27.90
2018-07-16T15:20:18.358Z,27.80
2018-07-16T15:22:47.367Z,27.70
2018-07-16T15:25:16.548Z,27.50
2018-07-16T15:27:45.693Z,27.30
2018-07-16T15:30:14.794Z,27.10
2018-07-16T15:32:43.873Z,26.80
2018-07-16T15:35:12.978Z,26.50
2018-07-16T15:37:42.148Z,26.30
2018-07-16T15:40:11.208Z,26.20
2018-07-16T15:42:40.280Z,26.20
2018-07-16T15:45:09.316Z,26.10
2018-07-16T15:47:38.484Z,26.00
2018-07-16T15:50:07.544Z,26.00
2018-07-16T15:52:36.649Z,26.00
2018-07-16T15:55:05.866Z,26.20
2018-07-16T15:57:35.056Z,26.30
2018-07-16T16:00:04.501Z,26.50
2018-07-16T16:02:33.533Z,26.70
2018-07-16T16:05:02.604Z,26.80
2018-07-16T16:07:32.528Z,26.80
2018-07-16T16:10:03.284Z,26.80
2018-07-16T16:12:32.437Z,26.70
2018-07-16T16:15:01.503Z,26.60
2018-07-16T16:17:30.671Z,26.50
2018-07-16T16:19:59.737Z,26.30
2018-07-16T16:22:28.791Z,26.20
2018-07-16T16:24:57.895Z,26.10
2018-07-16T16:27:26.952Z,26.10
2018-07-16T16:29:55.997Z,26.20
2018-07-16T16:32:25.059Z,26.20
2018-07-16T16:34:54.123Z,26.30
2018-07-16T16:37:23.206Z,26.30
2018-07-16T16:39:52.297Z,26.40
2018-07-16T16:42:21.315Z,26.30
2018-07-16T16:44:50.465Z,26.30
2018-07-16T16:47:19.523Z,26.20
2018-07-16T16:49:48.624Z,26.10
2018-07-16T16:52:17.684Z,26.00
2018-07-16T16:54:46.857Z,26.00
2018-07-16T16:57:15.980Z,26.00
2018-07-16T16:59:45.065Z,26.00
2018-07-16T17:02:14.325Z,26.00
2018-07-16T17:04:43.538Z,25.90
2018-07-16T17:07:12.676Z,25.80
2018-07-16T17:09:41.894Z,25.80
2018-07-16T17:12:10.949Z,25.70
2018-07-16T17:14:39.991Z,25.60
2018-07-16T17:17:09.056Z,25.60
2018-07-16T17:19:38.112Z,25.50
2018-07-16T17:22:07.221Z,25.50
2018-07-16T17:24:36.304Z,25.50
2018-07-16T17:27:05.343Z,25.40
2018-07-16T17:29:34.518Z,25.40
2018-07-16T17:32:03.725Z,25.40
2018-07-16T17:34:32.799Z,25.30
2018-07-16T17:37:01.886Z,25.30
2018-07-16T17:39:31.115Z,25.30
2018-07-16T17:42:00.212Z,25.30
2018-07-16T17:44:29.310Z,25.30
2018-07-16T17:46:58.365Z,25.30
2018-07-16T17:49:27.428Z,25.30
2018-07-16T17:51:56.512Z,25.30
2018-07-16T17:54:25.570Z,25.30
2018-07-16T17:56:54.677Z,25.30
2018-07-16T18:01:53.868Z,25.20
2018-07-16T18:04:22.985Z,25.10
2018-07-16T18:06:52.027Z,25.10
2018-07-16T18:09:21.158Z,25.00
2018-07-16T18:16:47.966Z,24.80
2018-07-16T18:19:17.412Z,24.70
2018-07-16T18:21:46.501Z,24.60
2018-07-16T18:24:15.619Z,24.50
2018-07-16T18:26:44.692Z,24.40
2018-07-16T18:29:14.338Z,24.30
2018-07-16T18:34:12.061Z,24.10
2018-07-16T18:36:41.168Z,24.00
2018-07-16T18:39:10.804Z,23.90
2018-07-16T18:41:40.130Z,23.80
2018-07-16T18:44:09.234Z,23.70
2018-07-16T18:46:38.420Z,23.60
2018-07-16T18:49:07.654Z,23.60
2018-07-16T18:51:38.899Z,23.50
2018-07-16T18:54:08.999Z,23.40
2018-07-16T18:56:38.159Z,23.30
2018-07-16T18:59:07.240Z,23.20
2018-07-16T19:01:36.381Z,23.10
2018-07-16T19:04:05.601Z,23.00
2018-07-16T19:06:34.818Z,23.00
2018-07-16T19:09:04.753Z,22.80
2018-07-16T19:11:33.981Z,22.70
2018-07-16T19:16:33.610Z,22.50
2018-07-16T19:19:02.906Z,22.40
2018-07-16T19:21:32.617Z,22.30
2018-07-16T19:24:01.832Z,22.20
2018-07-16T19:26:31.224Z,22.10
2018-07-16T19:29:00.496Z,22.00
2018-07-16T19:31:29.802Z,21.90
2018-07-16T19:33:58.885Z,21.80
2018-07-16T19:36:28.055Z,21.70
2018-07-16T19:38:57.442Z,21.60
2018-07-16T19:41:26.524Z,21.50
2018-07-16T19:43:55.648Z,21.40
2018-07-16T19:46:24.767Z,21.40
2018-07-16T19:48:54.241Z,21.20
2018-07-16T19:51:23.474Z,21.10
2018-07-16T19:53:52.826Z,21.00
2018-07-16T19:56:22.543Z,20.90
2018-07-16T19:58:52.074Z,20.90
2018-07-16T20:01:21.233Z,20.80
2018-07-16T20:03:50.406Z,20.70
2018-07-16T20:06:19.544Z,20.60
2018-07-16T20:08:48.593Z,20.60
2018-07-16T20:11:17.755Z,20.50
2018-07-16T20:13:46.863Z,20.40
2018-07-16T20:16:16.120Z,20.30
2018-07-16T20:18:45.353Z,20.20
2018-07-16T20:21:14.394Z,20.10
2018-07-16T20:23:43.528Z,20.00
2018-07-16T20:26:12.682Z,20.00
2018-07-16T20:28:41.788Z,19.90
2018-07-16T20:31:10.906Z,19.80
2018-07-16T20:33:39.955Z,19.80
2018-07-16T20:38:37.853Z,19.50
2018-07-16T20:41:07.025Z,19.40
2018-07-16T20:43:36.059Z,19.30
2018-07-16T20:46:05.427Z,19.20
2018-07-16T20:48:34.477Z,19.20
2018-07-16T20:51:03.627Z,19.10
2018-07-16T20:53:32.667Z,19.10
2018-07-16T20:56:01.822Z,19.00
2018-07-16T20:58:30.919Z,19.00
2018-07-16T21:00:59.991Z,18.90
2018-07-16T21:03:36.576Z,18.70
2018-07-16T21:06:10.662Z,18.60
2018-07-16T21:08:39.773Z,18.60
2018-07-16T21:11:08.865Z,18.50
2018-07-16T21:13:37.908Z,18.40
2018-07-16T21:16:07.064Z,18.30
2018-07-16T21:18:36.164Z,18.30
2018-07-16T21:21:05.286Z,18.30
2018-07-16T21:23:34.381Z,18.20
2018-07-16T21:26:03.532Z,18.10
2018-07-16T21:28:32.564Z,18.10
2018-07-16T21:33:30.338Z,18.00
2018-07-16T21:35:59.367Z,17.90
2018-07-16T21:38:28.477Z,17.80
2018-07-16T21:40:57.559Z,17.70
2018-07-16T21:43:26.634Z,17.60
2018-07-16T21:45:55.750Z,17.60
2018-07-16T21:48:24.784Z,17.50
2018-07-16T21:50:53.917Z,17.50
2018-07-16T21:53:22.980Z,17.50
2018-07-16T21:55:52.329Z,17.40
2018-07-16T21:58:21.369Z,17.40
2018-07-16T22:00:50.549Z,17.30
2018-07-16T22:03:19.633Z,17.20
2018-07-16T22:05:48.711Z,17.10
2018-07-16T22:08:17.820Z,17.10
